Terminal Aerodrome Forecast
Issued by NWS

Home | Current Version | Previous Version | Text Only | Print | Product List | Glossary On
Versions: 1 2 3 4 5 6 7 8 9 10 11 12 13 14 15 16 17
857
FTUS45 KTFX 201120
TAFCTB
TAF
KCTB 201120Z 2012/2112 23007KT P6SM SCT100 BKN180 WS020/26035KT
     FM201500 18007KT P6SM FEW005 SCT100 BKN180 WS020/25035KT
     FM202000 22011KT P6SM VCSH SCT050 BKN080 WS020/25030KT
     FM210000 23015KT P6SM OVC150 WS020/25040KT
     FM210600 25016G30KT P6SM SCT150 WS020/25050KT=

USA.gov is the U.S. government's official web portal to all federal, state and local government web resources and services.